Time;durP1;ratioP1;P1;durP2;ratioP2;P2;SDS_P1;SDS_P2;PMS_P1;PMS_P2;Temp;Humidity;BMP_temperature;BMP_pressure;BME280_temperature;BME280_humidity;BME280_pressure;Samples;Min_cycle;Max_cycle;Signal;HPM_P1;HPM_P2
2024/01/11 00:00:42;;;;;;;;;;;18.20;53.00;;;;;;5085262;28;43110;-80
2024/01/11 00:03:07;;;;;;;;;;;18.30;53.50;;;;;;5077789;28;43049;-79
2024/01/11 00:05:33;;;;;;;;;;;18.30;53.00;;;;;;5084430;28;43989;-83
2024/01/11 00:07:58;;;;;;;;;;;18.30;53.00;;;;;;5082945;28;43535;-82
2024/01/11 00:10:24;;;;;;;;;;;18.30;53.60;;;;;;5079138;28;43061;-76
2024/01/11 00:12:50;;;;;;;;;;;18.30;53.60;;;;;;5084633;28;42979;-81
2024/01/11 00:15:15;;;;;;;;;;;18.30;52.90;;;;;;5086183;28;42966;-84
2024/01/11 00:17:41;;;;;;;;;;;18.30;53.00;;;;;;5086370;28;43601;-83
2024/01/11 00:20:06;;;;;;;;;;;18.30;52.90;;;;;;5083189;28;43252;-78
2024/01/11 00:22:32;;;;;;;;;;;18.20;53.30;;;;;;5075355;28;43117;-80
2024/01/11 00:24:58;;;;;;;;;;;18.20;53.30;;;;;;5083915;27;43019;-79
2024/01/11 00:27:23;;;;;;;;;;;18.30;54.20;;;;;;5084706;28;42951;-79
2024/01/11 00:29:49;;;;;;;;;;;18.30;54.20;;;;;;5083899;28;42832;-80
2024/01/11 00:32:14;;;;;;;;;;;18.30;54.30;;;;;;5071192;28;42866;-79
2024/01/11 00:34:40;;;;;;;;;;;18.40;54.50;;;;;;5085577;28;43140;-78
2024/01/11 00:37:05;;;;;;;;;;;18.30;53.80;;;;;;5083061;28;43108;-80
2024/01/11 00:39:31;;;;;;;;;;;18.30;54.00;;;;;;5085191;27;43045;-79
2024/01/11 00:41:56;;;;;;;;;;;18.40;54.00;;;;;;5082986;28;44097;-79
2024/01/11 00:44:22;;;;;;;;;;;18.40;54.00;;;;;;5084777;28;42987;-80
2024/01/11 00:46:47;;;;;;;;;;;18.30;54.00;;;;;;5084251;28;43267;-79
2024/01/11 00:49:13;;;;;;;;;;;18.30;54.10;;;;;;5084795;28;42977;-80
2024/01/11 00:51:39;;;;;;;;;;;18.40;54.90;;;;;;5085095;28;43777;-78
2024/01/11 00:54:04;;;;;;;;;;;18.30;54.30;;;;;;5083226;28;42915;-78
2024/01/11 00:56:30;;;;;;;;;;;18.40;54.90;;;;;;5085051;27;42806;-78
2024/01/11 00:58:55;;;;;;;;;;;18.40;55.00;;;;;;5085007;28;43000;-79
2024/01/11 01:01:21;;;;;;;;;;;18.40;55.20;;;;;;5085374;28;43057;-79
2024/01/11 01:03:47;;;;;;;;;;;18.40;54.40;;;;;;5084857;28;42740;-79
2024/01/11 01:06:12;;;;;;;;;;;18.40;55.00;;;;;;5083741;28;43635;-80
2024/01/11 01:08:37;;;;;;;;;;;18.30;54.40;;;;;;5084100;28;43034;-80
2024/01/11 01:11:03;;;;;;;;;;;18.40;55.10;;;;;;5085737;28;43043;-79
2024/01/11 01:13:28;;;;;;;;;;;18.40;54.60;;;;;;5084415;28;42911;-79
2024/01/11 01:15:54;;;;;;;;;;;18.30;55.10;;;;;;5083768;28;43426;-79
2024/01/11 01:18:20;;;;;;;;;;;18.30;54.60;;;;;;5083869;28;43285;-79
2024/01/11 01:20:45;;;;;;;;;;;18.30;54.60;;;;;;5085363;28;43028;-79
2024/01/11 01:23:11;;;;;;;;;;;18.20;54.60;;;;;;5085077;28;43034;-78
2024/01/11 01:25:36;;;;;;;;;;;18.30;55.30;;;;;;5090174;28;43397;-79
2024/01/11 01:28:02;;;;;;;;;;;;;;;;;;5085378;28;43073;-78
2024/01/11 01:30:28;;;;;;;;;;;18.80;55.00;;;;;;5084384;28;44317;-79
2024/01/11 01:32:54;;;;;;;;;;;18.30;55.40;;;;;;5084335;28;43151;-78
2024/01/11 01:35:19;;;;;;;;;;;18.30;55.40;;;;;;5084559;28;43503;-80
2024/01/11 01:37:45;;;;;;;;;;;18.30;56.00;;;;;;5083901;28;42966;-78
2024/01/11 01:40:14;;;;;;;;;;;18.30;54.90;;;;;;5077263;28;42954;-78
2024/01/11 01:42:43;;;;;;;;;;;16.30;54.10;;;;;;5078616;28;42954;-78
2024/01/11 01:45:09;;;;;;;;;;;18.30;55.10;;;;;;5084908;28;43104;-78
2024/01/11 01:47:34;;;;;;;;;;;18.30;55.30;;;;;;5066249;28;43031;-80
2024/01/11 01:50:00;;;;;;;;;;;18.30;55.20;;;;;;5084396;28;42986;-79
2024/01/11 01:52:26;;;;;;;;;;;18.40;55.20;;;;;;5084162;28;42852;-78
2024/01/11 01:54:52;;;;;;;;;;;18.40;55.30;;;;;;5083364;28;43851;-78
2024/01/11 01:57:18;;;;;;;;;;;18.30;55.90;;;;;;5084113;28;42827;-80
2024/01/11 01:59:45;;;;;;;;;;;18.40;55.80;;;;;;5084047;28;42879;-80
2024/01/11 02:02:11;;;;;;;;;;;18.30;55.30;;;;;;5083899;28;42876;-79
2024/01/11 02:04:37;;;;;;;;;;;18.30;55.90;;;;;;5084379;28;42987;-79
2024/01/11 02:07:03;;;;;;;;;;;18.30;56.10;;;;;;5065392;28;43060;-80
2024/01/11 02:09:30;;;;;;;;;;;18.30;55.40;;;;;;5084751;28;43591;-80
2024/01/11 02:11:55;;;;;;;;;;;18.30;55.50;;;;;;5084160;28;43029;-80
2024/01/11 02:14:21;;;;;;;;;;;18.40;55.50;;;;;;5084110;28;43774;-80
2024/01/11 02:16:46;;;;;;;;;;;18.30;55.50;;;;;;5084100;27;42974;-80
2024/01/11 02:19:16;;;;;;;;;;;18.30;55.60;;;;;;5085461;28;44043;-80
2024/01/11 02:21:43;;;;;;;;;;;18.30;55.60;;;;;;5087214;28;43033;-79
2024/01/11 02:24:09;;;;;;;;;;;18.30;56.10;;;;;;5087873;28;42812;-80
2024/01/11 02:26:35;;;;;;;;;;;18.30;56.20;;;;;;5087844;28;42859;-80
2024/01/11 02:29:00;;;;;;;;;;;18.30;55.70;;;;;;5088017;27;43507;-78
2024/01/11 02:31:26;;;;;;;;;;;18.30;56.30;;;;;;5086816;28;42907;-80
2024/01/11 02:33:52;;;;;;;;;;;18.30;56.50;;;;;;5087088;28;42956;-79
2024/01/11 02:36:18;;;;;;;;;;;18.30;56.30;;;;;;5068338;28;42955;-80
2024/01/11 02:38:44;;;;;;;;;;;18.20;55.70;;;;;;5087150;28;44056;-80
2024/01/11 02:41:10;;;;;;;;;;;18.20;56.30;;;;;;5087706;28;42865;-80
2024/01/11 02:43:36;;;;;;;;;;;18.30;55.80;;;;;;5087836;28;43008;-78
2024/01/11 02:46:02;;;;;;;;;;;18.30;55.90;;;;;;5086736;28;42963;-80
2024/01/11 02:48:28;;;;;;;;;;;18.30;56.50;;;;;;5064847;28;43006;-79
2024/01/11 02:50:53;;;;;;;;;;;18.30;56.50;;;;;;5082418;28;42904;-79
2024/01/11 02:53:19;;;;;;;;;;;18.20;56.10;;;;;;5087588;28;43461;-80
2024/01/11 02:55:45;;;;;;;;;;;18.30;56.70;;;;;;5087329;28;42922;-80
2024/01/11 02:58:10;;;;;;;;;;;18.30;56.10;;;;;;5055842;28;44316;-79
2024/01/11 03:00:36;;;;;;;;;;;18.30;56.80;;;;;;5081780;28;42981;-79
2024/01/11 03:03:01;;;;;;;;;;;18.30;56.90;;;;;;5086662;28;44341;-80
2024/01/11 03:05:27;;;;;;;;;;;18.30;56.80;;;;;;5087033;28;43149;-79
2024/01/11 03:07:52;;;;;;;;;;;18.30;56.90;;;;;;5086565;28;42933;-80
2024/01/11 03:10:18;;;;;;;;;;;18.30;56.90;;;;;;5086519;28;42833;-79
2024/01/11 03:12:44;;;;;;;;;;;18.20;56.30;;;;;;5086464;28;43803;-80
2024/01/11 03:15:09;;;;;;;;;;;18.30;56.60;;;;;;5086664;28;42858;-79
2024/01/11 03:17:35;;;;;;;;;;;18.30;56.40;;;;;;5085151;28;42954;-80
2024/01/11 03:20:00;;;;;;;;;;;18.30;57.10;;;;;;5065614;28;42876;-79
2024/01/11 03:22:26;;;;;;;;;;;18.30;56.50;;;;;;5086165;28;43357;-80
2024/01/11 03:24:51;;;;;;;;;;;18.30;56.60;;;;;;5086372;28;43012;-78
2024/01/11 03:27:18;;;;;;;;;;;18.30;57.10;;;;;;5064876;28;44390;-80
2024/01/11 03:29:43;;;;;;;;;;;18.30;56.70;;;;;;5079443;28;43294;-79
2024/01/11 03:32:12;;;;;;;;;;;18.30;57.30;;;;;;5068363;28;42901;-79
2024/01/11 03:34:38;;;;;;;;;;;18.30;56.70;;;;;;5066296;28;42875;-80
2024/01/11 03:37:03;;;;;;;;;;;17.30;56.20;;;;;;5064160;28;43115;-80
2024/01/11 03:39:29;;;;;;;;;;;18.20;56.80;;;;;;5079772;28;42885;-79
2024/01/11 03:41:54;;;;;;;;;;;18.30;56.90;;;;;;5085397;28;42970;-79
2024/01/11 03:44:20;;;;;;;;;;;18.20;56.90;;;;;;5085990;28;42895;-79
2024/01/11 03:46:46;;;;;;;;;;;18.30;56.90;;;;;;5088073;28;43822;-79
2024/01/11 03:49:12;;;;;;;;;;;18.30;57.50;;;;;;5091308;28;43019;-79
2024/01/11 03:51:37;;;;;;;;;;;18.30;56.80;;;;;;5075681;28;43046;-78
2024/01/11 03:54:03;;;;;;;;;;;18.30;57.50;;;;;;5080567;28;43213;-78
2024/01/11 03:56:29;;;;;;;;;;;18.30;57.50;;;;;;5076221;28;42880;-79
2024/01/11 03:58:55;;;;;;;;;;;18.20;56.80;;;;;;5086610;28;43072;-77
2024/01/11 04:01:20;;;;;;;;;;;18.30;57.50;;;;;;5085052;28;42950;-79
2024/01/11 04:03:46;;;;;;;;;;;18.30;57.60;;;;;;5085985;28;42932;-79
2024/01/11 04:06:26;;;;;;;;;;;18.20;57.40;;;;;;5083416;28;43092;-79
2024/01/11 04:08:52;;;;;;;;;;;18.20;56.90;;;;;;5067467;28;42828;-79
2024/01/11 04:11:18;;;;;;;;;;;18.30;57.10;;;;;;5085813;28;43404;-79
2024/01/11 04:13:43;;;;;;;;;;;18.40;57.60;;;;;;5086693;28;42974;-78
2024/01/11 04:16:09;;;;;;;;;;;18.20;57.50;;;;;;5086256;28;43034;-79
2024/01/11 04:18:34;;;;;;;;;;;18.20;56.90;;;;;;5084324;28;43117;-79
2024/01/11 04:21:00;;;;;;;;;;;18.20;57.50;;;;;;5085115;28;43492;-79
2024/01/11 04:23:25;;;;;;;;;;;18.20;57.50;;;;;;5084981;28;43011;-80
2024/01/11 04:25:51;;;;;;;;;;;18.20;57.00;;;;;;5083422;28;42966;-80
2024/01/11 04:28:17;;;;;;;;;;;18.20;57.60;;;;;;5083379;28;42898;-78
2024/01/11 04:30:43;;;;;;;;;;;18.20;57.50;;;;;;5085405;27;43638;-80
2024/01/11 04:33:09;;;;;;;;;;;18.20;57.00;;;;;;5085075;28;42922;-79
2024/01/11 04:35:34;;;;;;;;;;;18.20;57.50;;;;;;5085202;28;42962;-77
2024/01/11 04:38:00;;;;;;;;;;;18.10;57.00;;;;;;5084907;28;42907;-78
2024/01/11 04:40:26;;;;;;;;;;;18.30;57.10;;;;;;5084481;27;43711;-79
2024/01/11 04:42:51;;;;;;;;;;;18.30;57.20;;;;;;5085678;28;42891;-78
2024/01/11 04:45:17;;;;;;;;;;;18.20;57.80;;;;;;5085102;28;42957;-78
2024/01/11 04:47:42;;;;;;;;;;;18.20;57.80;;;;;;5085143;28;42892;-79
2024/01/11 04:50:08;;;;;;;;;;;18.20;57.30;;;;;;5085148;28;43409;-77
2024/01/11 04:52:33;;;;;;;;;;;18.20;57.30;;;;;;5083095;28;43323;-78
2024/01/11 04:54:59;;;;;;;;;;;18.20;57.90;;;;;;5085174;28;43047;-79
2024/01/11 04:57:24;;;;;;;;;;;18.10;57.80;;;;;;5084448;28;43166;-80
2024/01/11 04:59:50;;;;;;;;;;;18.20;57.40;;;;;;5085095;28;43027;-78
2024/01/11 05:02:15;;;;;;;;;;;18.10;57.30;;;;;;5084353;28;42979;-79
2024/01/11 05:04:41;;;;;;;;;;;18.30;57.40;;;;;;5084929;28;43123;-79
2024/01/11 05:07:06;;;;;;;;;;;18.20;57.40;;;;;;5084849;28;42959;-79
2024/01/11 05:09:32;;;;;;;;;;;18.20;58.00;;;;;;5085131;28;43358;-79
2024/01/11 05:11:58;;;;;;;;;;;18.30;57.40;;;;;;5083040;28;42973;-79
2024/01/11 05:14:23;;;;;;;;;;;18.10;57.90;;;;;;5084311;28;42926;-78
2024/01/11 05:16:50;;;;;;;;;;;18.20;57.50;;;;;;5084716;28;43101;-80
2024/01/11 05:19:15;;;;;;;;;;;18.20;58.10;;;;;;5084507;28;42987;-79
2024/01/11 05:21:41;;;;;;;;;;;18.20;58.10;;;;;;5084771;28;42903;-78
2024/01/11 05:24:06;;;;;;;;;;;18.30;58.20;;;;;;5065966;28;43065;-79
2024/01/11 05:26:32;;;;;;;;;;;18.30;57.50;;;;;;5084932;28;43046;-80
2024/01/11 05:28:58;;;;;;;;;;;18.30;57.50;;;;;;5081602;28;43177;-79
2024/01/11 05:31:23;;;;;;;;;;;18.20;57.60;;;;;;5073552;27;42992;-79
2024/01/11 05:33:49;;;;;;;;;;;18.20;57.60;;;;;;5084582;28;43543;-79
2024/01/11 05:36:14;;;;;;;;;;;18.10;58.20;;;;;;5084104;28;42833;-79
2024/01/11 05:38:40;;;;;;;;;;;18.10;57.70;;;;;;5084539;28;43501;-78
2024/01/11 05:41:06;;;;;;;;;;;18.20;58.50;;;;;;5082978;28;44089;-79
2024/01/11 05:43:31;;;;;;;;;;;18.10;58.50;;;;;;5084340;28;43109;-78
2024/01/11 05:45:58;;;;;;;;;;;18.20;57.80;;;;;;5082925;28;43007;-79
2024/01/11 05:48:24;;;;;;;;;;;18.20;57.80;;;;;;5067906;28;43050;-80
2024/01/11 05:50:50;;;;;;;;;;;18.10;57.80;;;;;;5079058;28;42958;-79
2024/01/11 05:53:17;;;;;;;;;;;18.20;57.90;;;;;;5085825;27;43469;-78
2024/01/11 05:55:42;;;;;;;;;;;18.20;58.40;;;;;;5086836;28;43020;-79
2024/01/11 05:58:08;;;;;;;;;;;18.20;58.40;;;;;;5087557;28;43527;-78
2024/01/11 06:00:33;;;;;;;;;;;18.20;58.40;;;;;;5083127;28;43080;-80
2024/01/11 06:02:59;;;;;;;;;;;18.20;57.80;;;;;;5088223;28;43526;-79
2024/01/11 06:05:25;;;;;;;;;;;18.20;58.50;;;;;;5084009;28;43500;-79
2024/01/11 06:07:50;;;;;;;;;;;18.20;57.50;;;;;;5080630;28;42915;-77
2024/01/11 06:10:16;;;;;;;;;;;18.10;57.60;;;;;;5053558;28;43243;-77
2024/01/11 06:12:42;;;;;;;;;;;18.20;57.40;;;;;;5080213;28;43069;-78
2024/01/11 06:15:08;;;;;;;;;;;18.10;57.30;;;;;;5082164;28;44232;-76
2024/01/11 06:17:33;;;;;;;;;;;18.10;57.10;;;;;;5073754;28;42947;-78
2024/01/11 06:20:00;;;;;;;;;;;18.20;57.10;;;;;;5072330;28;43069;-78
2024/01/11 06:22:25;;;;;;;;;;;18.10;56.80;;;;;;5083599;28;43692;-79
2024/01/11 06:24:51;;;;;;;;;;;18.20;56.90;;;;;;5086628;28;43131;-78
2024/01/11 06:27:17;;;;;;;;;;;18.10;56.20;;;;;;5086323;28;43011;-78
2024/01/11 06:29:42;;;;;;;;;;;18.10;56.10;;;;;;5080670;28;43008;-78
2024/01/11 06:32:08;;;;;;;;;;;18.10;56.10;;;;;;5079538;28;43369;-77
2024/01/11 06:34:35;;;;;;;;;;;18.20;56.10;;;;;;5085662;28;42867;-79
2024/01/11 06:37:02;;;;;;;;;;;18.10;56.10;;;;;;5086925;28;42999;-79
2024/01/11 06:39:28;;;;;;;;;;;18.20;56.70;;;;;;5086202;28;43178;-78
2024/01/11 06:41:53;;;;;;;;;;;18.50;56.80;;;;;;5081617;28;44425;-78
2024/01/11 06:44:19;;;;;;;;;;;18.10;56.00;;;;;;5086540;28;43240;-77
2024/01/11 06:46:45;;;;;;;;;;;18.20;56.10;;;;;;5075362;28;43905;-80
2024/01/11 06:49:11;;;;;;;;;;;18.10;56.50;;;;;;5086060;28;42913;-77
2024/01/11 06:51:37;;;;;;;;;;;18.10;56.20;;;;;;5066780;28;44085;-77
2024/01/11 06:54:02;;;;;;;;;;;18.10;56.70;;;;;;5086778;28;42863;-77
2024/01/11 06:56:28;;;;;;;;;;;18.20;56.00;;;;;;5085327;28;43743;-79
2024/01/11 06:58:54;;;;;;;;;;;18.10;55.90;;;;;;5080773;28;42996;-78
2024/01/11 07:01:19;;;;;;;;;;;18.10;56.10;;;;;;5084848;28;43390;-77
2024/01/11 07:03:45;;;;;;;;;;;18.20;56.10;;;;;;5085872;28;43305;-78
2024/01/11 07:06:10;;;;;;;;;;;18.10;56.00;;;;;;5087029;28;43222;-78
2024/01/11 07:08:36;;;;;;;;;;;18.00;55.90;;;;;;5086135;28;43227;-77
2024/01/11 07:11:02;;;;;;;;;;;18.10;56.00;;;;;;5086805;28;43059;-78
2024/01/11 07:13:28;;;;;;;;;;;21.20;58.10;;;;;;5086126;28;43028;-78
2024/01/11 07:15:55;;;;;;;;;;;18.10;56.40;;;;;;5086129;28;43654;-78
2024/01/11 07:18:21;;;;;;;;;;;18.10;55.90;;;;;;5083749;28;43376;-79
2024/01/11 07:20:47;;;;;;;;;;;18.10;55.90;;;;;;5076716;28;42998;-78
2024/01/11 07:23:13;;;;;;;;;;;18.10;56.50;;;;;;5085973;28;43683;-78
2024/01/11 07:25:39;;;;;;;;;;;18.10;55.90;;;;;;5086369;28;43448;-77
2024/01/11 07:28:05;;;;;;;;;;;18.10;56.50;;;;;;5066867;28;43123;-78
2024/01/11 07:30:30;;;;;;;;;;;18.00;55.80;;;;;;5085033;28;43793;-77
2024/01/11 07:32:56;;;;;;;;;;;18.00;56.40;;;;;;5085752;28;42999;-77
2024/01/11 07:35:21;;;;;;;;;;;18.10;55.90;;;;;;5082473;28;43001;-78
2024/01/11 07:37:47;;;;;;;;;;;18.10;56.40;;;;;;5085312;28;43931;-77
2024/01/11 07:40:13;;;;;;;;;;;18.10;56.40;;;;;;5081521;28;44732;-79
2024/01/11 07:42:39;;;;;;;;;;;18.20;56.40;;;;;;5074219;28;42808;-78
2024/01/11 07:45:05;;;;;;;;;;;18.10;56.30;;;;;;5080147;28;43565;-79
2024/01/11 07:47:31;;;;;;;;;;;18.10;56.40;;;;;;5082150;28;42832;-79
2024/01/11 07:49:57;;;;;;;;;;;18.00;56.30;;;;;;5083426;28;43652;-77
2024/01/11 07:52:28;;;;;;;;;;;18.10;56.40;;;;;;5076915;28;44156;-76
2024/01/11 07:54:54;;;;;;;;;;;18.00;56.10;;;;;;5086539;28;42993;-76
2024/01/11 07:57:19;;;;;;;;;;;18.10;55.90;;;;;;5086535;28;42831;-77
2024/01/11 07:59:45;;;;;;;;;;;18.20;55.90;;;;;;5085551;28;43593;-77
2024/01/11 08:02:10;;;;;;;;;;;18.00;56.30;;;;;;5086877;28;42970;-77
2024/01/11 08:04:38;;;;;;;;;;;17.80;55.70;;;;;;5086723;28;43005;-78
2024/01/11 08:07:04;;;;;;;;;;;18.00;56.40;;;;;;5085490;28;43147;-77
2024/01/11 08:09:30;;;;;;;;;;;18.00;56.40;;;;;;5084608;28;43158;-77
2024/01/11 08:11:55;;;;;;;;;;;18.00;55.90;;;;;;5084463;28;42891;-75
2024/01/11 08:14:21;;;;;;;;;;;18.10;55.90;;;;;;5085433;28;43353;-78
2024/01/11 08:16:46;;;;;;;;;;;18.10;55.90;;;;;;5065595;28;43065;-79
2024/01/11 08:19:14;;;;;;;;;;;17.90;55.80;;;;;;5085681;28;43753;-79
2024/01/11 08:21:41;;;;;;;;;;;18.00;46.20;;;;;;5079437;28;42937;-79
2024/01/11 08:24:06;;;;;;;;;;;17.80;41.60;;;;;;5084330;28;44520;-80
2024/01/11 08:26:32;;;;;;;;;;;17.60;38.70;;;;;;5085345;28;42983;-80
2024/01/11 08:28:57;;;;;;;;;;;17.40;37.70;;;;;;5082923;28;43341;-76
2024/01/11 08:31:23;;;;;;;;;;;17.00;37.70;;;;;;5070771;28;44880;-78
2024/01/11 08:33:49;;;;;;;;;;;16.80;36.90;;;;;;5081478;28;42936;-78
2024/01/11 08:36:15;;;;;;;;;;;16.60;38.40;;;;;;5084601;28;42953;-77
2024/01/11 08:38:41;;;;;;;;;;;16.30;37.80;;;;;;5076802;28;43732;-78
2024/01/11 08:41:06;;;;;;;;;;;16.10;37.70;;;;;;5081012;28;43057;-77
2024/01/11 08:43:32;;;;;;;;;;;15.80;38.90;;;;;;5075923;28;44752;-78
2024/01/11 08:45:58;;;;;;;;;;;15.70;39.20;;;;;;5084661;28;42946;-78
2024/01/11 08:48:23;;;;;;;;;;;13.60;38.10;;;;;;5085449;28;43602;-77
2024/01/11 08:50:49;;;;;;;;;;;15.30;39.10;;;;;;5085477;28;42954;-78
2024/01/11 08:53:15;;;;;;;;;;;15.00;39.20;;;;;;5083432;28;43048;-78
2024/01/11 08:55:41;;;;;;;;;;;14.90;39.90;;;;;;5082110;28;43042;-78
2024/01/11 08:58:06;;;;;;;;;;;15.00;40.00;;;;;;5083382;28;43325;-79
2024/01/11 09:00:32;;;;;;;;;;;15.10;40.30;;;;;;5083122;28;43337;-78
2024/01/11 09:02:57;;;;;;;;;;;15.00;42.00;;;;;;5080946;28;43500;-79
2024/01/11 09:05:23;;;;;;;;;;;15.20;44.00;;;;;;5071775;28;43001;-78
2024/01/11 09:07:48;;;;;;;;;;;15.30;44.30;;;;;;5084763;28;43581;-79
2024/01/11 09:10:14;;;;;;;;;;;15.50;45.10;;;;;;5084560;28;43221;-78
2024/01/11 09:12:39;;;;;;;;;;;15.70;45.30;;;;;;5084615;28;43115;-78
2024/01/11 09:15:05;;;;;;;;;;;15.80;46.20;;;;;;5085022;28;43373;-78
2024/01/11 09:17:31;;;;;;;;;;;16.00;46.50;;;;;;5084372;28;43575;-79
2024/01/11 09:19:56;;;;;;;;;;;16.10;46.20;;;;;;5080354;28;43085;-78
2024/01/11 09:22:22;;;;;;;;;;;16.10;46.30;;;;;;5075840;28;43422;-78
2024/01/11 09:24:47;;;;;;;;;;;16.30;46.50;;;;;;5080525;28;42950;-76
2024/01/11 09:27:13;;;;;;;;;;;16.40;47.40;;;;;;5083770;28;43166;-79
2024/01/11 09:29:45;;;;;;;;;;;16.40;47.40;;;;;;5082756;28;43220;-78
2024/01/11 09:32:11;;;;;;;;;;;16.50;47.00;;;;;;5084676;28;43559;-78
2024/01/11 09:34:36;;;;;;;;;;;16.50;47.60;;;;;;5066161;28;42995;-78
2024/01/11 09:37:03;;;;;;;;;;;16.60;48.50;;;;;;5083011;28;44665;-78
2024/01/11 09:39:29;;;;;;;;;;;16.60;47.90;;;;;;5083518;28;42978;-79
2024/01/11 09:41:58;;;;;;;;;;;16.80;47.60;;;;;;5084109;28;42928;-78
2024/01/11 09:44:24;;;;;;;;;;;16.70;47.80;;;;;;5083958;28;42891;-78
2024/01/11 09:46:53;;;;;;;;;;;16.80;48.30;;;;;;5076160;28;63295;-78
2024/01/11 09:49:19;;;;;;;;;;;16.80;48.50;;;;;;5074948;28;43008;-78
2024/01/11 09:51:46;;;;;;;;;;;16.80;48.10;;;;;;5083406;28;42891;-79
2024/01/11 09:54:12;;;;;;;;;;;16.90;48.70;;;;;;5083460;28;43097;-79
2024/01/11 09:56:37;;;;;;;;;;;16.90;49.00;;;;;;5083826;28;43499;-77
2024/01/11 09:59:06;;;;;;;;;;;16.90;48.40;;;;;;5084084;28;42902;-78
2024/01/11 10:01:31;;;;;;;;;;;16.90;49.00;;;;;;5084001;28;42983;-79
2024/01/11 10:03:57;;;;;;;;;;;17.10;42.10;;;;;;5084129;28;42983;-79
2024/01/11 10:06:23;;;;;;;;;;;16.90;40.00;;;;;;5082498;28;43723;-79
2024/01/11 10:08:49;;;;;;;;;;;16.80;38.60;;;;;;5074870;28;43022;-79
2024/01/11 10:11:14;;;;;;;;;;;16.60;38.20;;;;;;5081930;28;43587;-79
2024/01/11 10:13:40;;;;;;;;;;;16.50;37.10;;;;;;5079430;28;43060;-79
2024/01/11 10:16:07;;;;;;;;;;;16.30;37.40;;;;;;5077311;28;43609;-79
2024/01/11 10:18:32;;;;;;;;;;;16.00;36.70;;;;;;5075584;28;42952;-80
2024/01/11 10:20:58;;;;;;;;;;;16.30;37.30;;;;;;5077561;28;43335;-79
2024/01/11 10:23:23;;;;;;;;;;;16.10;36.90;;;;;;5075716;28;43026;-80
2024/01/11 10:25:49;;;;;;;;;;;15.90;37.40;;;;;;5081693;28;43026;-79
2024/01/11 10:28:15;;;;;;;;;;;15.80;36.80;;;;;;5081182;28;43149;-76
2024/01/11 10:30:41;;;;;;;;;;;15.70;36.80;;;;;;5083256;27;43631;-78
2024/01/11 10:33:07;;;;;;;;;;;15.80;39.40;;;;;;5076942;28;43062;-78
2024/01/11 10:35:33;;;;;;;;;;;15.70;40.40;;;;;;5082609;28;43060;-84
2024/01/11 10:38:03;;;;;;;;;;;15.80;41.70;;;;;;5076996;28;42840;-79
2024/01/11 10:40:29;;;;;;;;;;;15.90;43.50;;;;;;5068842;28;43706;-80
2024/01/11 10:42:58;;;;;;;;;;;16.10;43.90;;;;;;5076617;28;43059;-79
2024/01/11 10:45:24;;;;;;;;;;;16.30;45.00;;;;;;5081819;28;43515;-80
2024/01/11 10:47:55;;;;;;;;;;;16.30;45.10;;;;;;5086942;28;43120;-77
2024/01/11 10:50:22;;;;;;;;;;;16.40;44.90;;;;;;5081884;28;44025;-78
2024/01/11 10:53:08;;;;;;;;;;;16.50;45.40;;;;;;5076677;28;43005;-79
2024/01/11 10:55:34;;;;;;;;;;;16.60;45.50;;;;;;5072545;28;43033;-78
2024/01/11 10:58:01;;;;;;;;;;;16.80;45.20;;;;;;5068159;28;43507;-76
2024/01/11 11:00:27;;;;;;;;;;;16.80;45.70;;;;;;5086033;28;42994;-77
2024/01/11 11:02:54;;;;;;;;;;;16.80;45.90;;;;;;5086172;28;42910;-77
2024/01/11 11:05:20;;;;;;;;;;;17.00;45.50;;;;;;5092879;28;43655;-78
2024/01/11 11:07:47;;;;;;;;;;;17.00;46.00;;;;;;5088243;28;43014;-80
2024/01/11 11:10:13;;;;;;;;;;;17.10;46.60;;;;;;5080055;28;43114;-79
2024/01/11 11:12:40;;;;;;;;;;;17.00;43.50;;;;;;5086178;28;42992;-78
2024/01/11 11:15:06;;;;;;;;;;;17.00;42.20;;;;;;5085902;28;43719;-78
2024/01/11 11:17:32;;;;;;;;;;;17.00;41.60;;;;;;5086121;28;42975;-78
2024/01/11 11:19:58;;;;;;;;;;;17.00;41.30;;;;;;5085932;28;42970;-76
2024/01/11 11:22:26;;;;;;;;;;;17.00;43.20;;;;;;5085444;28;43325;-79
2024/01/11 11:25:03;;;;;;;;;;;17.00;43.90;;;;;;5084331;28;43231;-78
2024/01/11 11:27:29;;;;;;;;;;;16.90;45.30;;;;;;5083179;28;43187;-78
2024/01/11 11:29:54;;;;;;;;;;;16.90;45.80;;;;;;5083116;28;43429;-79
2024/01/11 11:32:34;;;;;;;;;;;16.90;45.70;;;;;;5076902;28;43162;-79
2024/01/11 11:34:59;;;;;;;;;;;16.90;46.40;;;;;;5075198;28;43042;-79
2024/01/11 11:37:25;;;;;;;;;;;16.90;46.10;;;;;;5084758;28;43029;-79
2024/01/11 11:39:50;;;;;;;;;;;16.90;46.20;;;;;;5085595;28;43595;-79
2024/01/11 11:42:16;;;;;;;;;;;17.00;46.90;;;;;;5085965;28;43365;-79
2024/01/11 11:44:48;;;;;;;;;;;17.00;46.40;;;;;;5085308;28;43086;-78
2024/01/11 11:47:21;;;;;;;;;;;17.00;46.60;;;;;;5085430;28;43208;-79
2024/01/11 11:49:56;;;;;;;;;;;17.00;46.70;;;;;;5085305;27;43051;-79
2024/01/11 11:52:22;;;;;;;;;;;17.10;46.80;;;;;;5085373;28;43249;-76
2024/01/11 11:54:48;;;;;;;;;;;17.00;46.80;;;;;;5073738;28;43521;-77
2024/01/11 11:57:16;;;;;;;;;;;17.80;48.10;;;;;;5078259;28;43020;-76
2024/01/11 11:59:42;;;;;;;;;;;17.20;47.60;;;;;;5085287;28;44121;-76
2024/01/11 12:02:12;;;;;;;;;;;17.00;47.60;;;;;;5085447;28;42938;-77
2024/01/11 12:04:39;;;;;;;;;;;17.10;48.40;;;;;;5084838;28;43695;-77
2024/01/11 12:07:04;;;;;;;;;;;17.00;47.90;;;;;;5085081;28;42928;-76
2024/01/11 12:09:30;;;;;;;;;;;17.20;48.10;;;;;;5084836;28;43190;-78
2024/01/11 12:11:55;;;;;;;;;;;17.10;48.70;;;;;;5083771;28;43076;-77
2024/01/11 12:14:21;;;;;;;;;;;17.20;48.80;;;;;;5083982;28;43688;-76
2024/01/11 12:16:55;;;;;;;;;;;17.20;49.40;;;;;;5083852;28;43006;-76
2024/01/11 12:19:22;;;;;;;;;;;17.20;48.30;;;;;;5083931;28;44209;-77
2024/01/11 12:21:49;;;;;;;;;;;17.20;48.80;;;;;;5085049;28;43339;-78
2024/01/11 12:24:15;;;;;;;;;;;17.20;48.90;;;;;;5083665;28;43690;-77
2024/01/11 12:26:40;;;;;;;;;;;17.20;49.00;;;;;;5071711;28;42888;-77
2024/01/11 12:29:06;;;;;;;;;;;17.20;48.50;;;;;;5082579;28;42897;-76
2024/01/11 12:31:32;;;;;;;;;;;17.20;49.20;;;;;;5081157;27;43036;-78
2024/01/11 12:33:57;;;;;;;;;;;17.30;48.70;;;;;;5073982;28;42947;-77
2024/01/11 12:36:23;;;;;;;;;;;17.20;48.80;;;;;;5080225;28;42963;-76
2024/01/11 12:38:49;;;;;;;;;;;17.30;48.90;;;;;;5084035;28;43620;-77
2024/01/11 12:41:15;;;;;;;;;;;17.40;48.90;;;;;;5084755;28;43162;-78
2024/01/11 12:43:41;;;;;;;;;;;17.20;48.90;;;;;;5066899;28;44575;-77
2024/01/11 12:46:07;;;;;;;;;;;17.10;48.80;;;;;;5084592;28;43018;-77
2024/01/11 12:48:33;;;;;;;;;;;17.20;49.60;;;;;;5085063;28;43955;-78
2024/01/11 12:50:58;;;;;;;;;;;17.40;49.10;;;;;;5083944;28;42990;-77
2024/01/11 12:53:24;;;;;;;;;;;17.30;50.10;;;;;;5083892;28;43073;-77
2024/01/11 12:56:13;;;;;;;;;;;17.20;49.20;;;;;;5084630;28;42835;-76
2024/01/11 12:58:39;;;;;;;;;;;17.30;49.30;;;;;;5078605;28;43039;-78
2024/01/11 13:01:08;;;;;;;;;;;17.40;50.00;;;;;;5074738;27;43022;-77
2024/01/11 13:03:35;;;;;;;;;;;17.40;49.50;;;;;;5084148;28;43365;-76
2024/01/11 13:06:08;;;;;;;;;;;17.30;49.50;;;;;;5083312;28;43034;-76
2024/01/11 13:08:39;;;;;;;;;;;17.30;49.70;;;;;;5083559;28;42973;-77
2024/01/11 13:11:06;;;;;;;;;;;17.20;49.50;;;;;;5072970;27;44718;-78
2024/01/11 13:13:35;;;;;;;;;;;17.30;50.10;;;;;;5078818;28;43373;-78
2024/01/11 13:16:05;;;;;;;;;;;17.30;49.80;;;;;;5076557;27;43011;-77
2024/01/11 13:18:32;;;;;;;;;;;17.40;50.30;;;;;;5075079;27;43885;-77
2024/01/11 13:20:57;;;;;;;;;;;17.30;49.70;;;;;;5071579;27;42944;-77
2024/01/11 13:23:24;;;;;;;;;;;17.30;50.30;;;;;;5076417;27;43540;-77
2024/01/11 13:25:49;;;;;;;;;;;17.20;50.50;;;;;;5083328;28;42977;-77
2024/01/11 13:28:15;;;;;;;;;;;17.30;49.80;;;;;;5087446;27;43975;-77
2024/01/11 13:30:41;;;;;;;;;;;17.10;50.00;;;;;;5063710;28;43090;-78
2024/01/11 13:33:10;;;;;;;;;;;17.20;50.40;;;;;;5077430;28;43070;-77
2024/01/11 13:35:36;;;;;;;;;;;17.50;51.10;;;;;;5080162;27;43001;-76
2024/01/11 13:38:02;;;;;;;;;;;17.30;51.10;;;;;;5081773;28;42887;-77
2024/01/11 13:40:28;;;;;;;;;;;17.30;51.10;;;;;;5083496;28;43088;-78
2024/01/11 13:42:57;;;;;;;;;;;17.30;51.10;;;;;;5076894;28;43376;-77
2024/01/11 13:45:23;;;;;;;;;;;17.30;50.70;;;;;;5080444;28;42942;-78
2024/01/11 13:47:49;;;;;;;;;;;17.30;50.60;;;;;;5082276;28;43122;-77
2024/01/11 13:50:16;;;;;;;;;;;17.30;50.50;;;;;;5078843;28;43133;-78
2024/01/11 13:52:41;;;;;;;;;;;17.30;51.00;;;;;;5071689;28;44500;-78
2024/01/11 13:55:10;;;;;;;;;;;17.30;50.50;;;;;;5073107;28;43051;-77
2024/01/11 13:57:36;;;;;;;;;;;17.40;51.10;;;;;;5078973;28;43591;-77
2024/01/11 14:00:03;;;;;;;;;;;17.30;51.00;;;;;;5074303;28;43204;-77
2024/01/11 14:02:28;;;;;;;;;;;17.30;50.50;;;;;;5080956;28;43094;-77
2024/01/11 14:04:54;;;;;;;;;;;17.30;51.10;;;;;;5081613;28;42939;-78
2024/01/11 14:07:19;;;;;;;;;;;17.30;51.10;;;;;;5082735;28;43294;-78
2024/01/11 14:09:45;;;;;;;;;;;17.30;51.20;;;;;;5083443;28;42879;-79
2024/01/11 14:12:11;;;;;;;;;;;17.30;48.90;;;;;;5077258;28;43680;-81